createdAt,value
2023-04-04T00:00:09.401Z,27.10
2023-04-04T00:01:09.420Z,27.11
2023-04-04T00:02:09.494Z,27.10
2023-04-04T00:03:09.617Z,27.10
2023-04-04T00:04:09.602Z,27.10
2023-04-04T00:05:09.585Z,27.10
2023-04-04T00:06:09.601Z,27.11
2023-04-04T00:07:09.631Z,27.11
2023-04-04T00:08:09.678Z,27.11
2023-04-04T00:09:09.707Z,27.12
2023-04-04T00:10:09.747Z,27.13
2023-04-04T00:11:09.759Z,27.12
2023-04-04T00:12:09.793Z,27.12
2023-04-04T00:13:09.844Z,27.12
2023-04-04T00:14:09.868Z,27.12
2023-04-04T00:15:09.902Z,27.13
2023-04-04T00:16:09.968Z,27.11
2023-04-04T00:17:09.965Z,27.12
2023-04-04T00:18:10.055Z,27.12
2023-04-04T00:19:10.034Z,27.12
2023-04-04T00:20:10.063Z,27.13
2023-04-04T00:21:10.100Z,27.13
2023-04-04T00:22:10.131Z,27.12
2023-04-04T00:23:10.189Z,27.13
2023-04-04T00:24:10.208Z,27.11
2023-04-04T00:25:10.253Z,27.11
2023-04-04T00:26:10.278Z,27.13
2023-04-04T00:27:10.290Z,27.14
2023-04-04T00:28:10.338Z,27.14
2023-04-04T00:29:10.358Z,27.11
2023-04-04T00:30:10.396Z,27.14
2023-04-04T00:31:10.444Z,27.13
2023-04-04T00:32:10.475Z,27.13
2023-04-04T00:33:10.571Z,27.14
2023-04-04T00:34:10.521Z,27.13
2023-04-04T00:35:10.570Z,27.15
2023-04-04T00:36:10.610Z,27.12
2023-04-04T00:37:10.605Z,27.15
2023-04-04T00:38:10.643Z,27.12
2023-04-04T00:39:10.680Z,27.13
2023-04-04T00:40:10.713Z,27.14
2023-04-04T00:41:10.735Z,27.14
2023-04-04T00:42:10.785Z,27.13
2023-04-04T00:43:10.798Z,27.13
2023-04-04T00:44:10.830Z,27.13
2023-04-04T00:45:10.872Z,27.13
2023-04-04T00:46:10.992Z,27.14
2023-04-04T00:47:10.930Z,27.14
2023-04-04T00:48:10.984Z,27.13
2023-04-04T00:49:10.992Z,27.13
2023-04-04T00:50:11.021Z,27.13
2023-04-04T00:51:11.052Z,27.14
2023-04-04T00:52:11.095Z,27.16
2023-04-04T00:53:11.223Z,27.15
2023-04-04T00:54:11.159Z,27.15
2023-04-04T00:55:11.191Z,27.12
2023-04-04T00:56:11.224Z,27.12
2023-04-04T00:57:11.277Z,27.15
2023-04-04T00:58:11.339Z,27.15
2023-04-04T00:59:11.380Z,27.14
2023-04-04T01:00:11.376Z,27.13
2023-04-04T01:01:11.485Z,27.15
2023-04-04T01:02:11.463Z,27.15
2023-04-04T01:03:11.492Z,27.15
2023-04-04T01:04:11.609Z,27.15
2023-04-04T01:05:11.598Z,27.17
2023-04-04T01:06:11.607Z,27.17
2023-04-04T01:07:11.643Z,27.15
2023-04-04T01:08:11.684Z,27.15
2023-04-04T01:09:11.728Z,27.15
2023-04-04T01:10:11.793Z,27.15
2023-04-04T01:11:11.802Z,27.13
2023-04-04T01:12:11.825Z,27.16
2023-04-04T01:13:11.870Z,27.14
2023-04-04T01:14:11.910Z,27.14
2023-04-04T01:15:11.941Z,27.15
2023-04-04T01:16:12.003Z,27.15
2023-04-04T01:17:12.011Z,27.16
2023-04-04T01:18:12.093Z,27.16
2023-04-04T01:19:12.082Z,27.17
2023-04-04T01:20:12.111Z,27.15
2023-04-04T01:21:12.143Z,27.15
2023-04-04T01:22:12.191Z,27.14
2023-04-04T01:23:12.209Z,27.14
2023-04-04T01:24:12.252Z,27.15
2023-04-04T01:25:12.265Z,27.15
2023-04-04T01:26:12.301Z,27.18
2023-04-04T01:27:12.333Z,27.16
2023-04-04T01:28:12.398Z,27.17
2023-04-04T01:29:12.408Z,27.14
2023-04-04T01:30:12.443Z,27.16
2023-04-04T01:31:12.516Z,27.19
2023-04-04T01:32:12.503Z,27.17
2023-04-04T01:33:12.537Z,27.16
2023-04-04T01:34:12.584Z,27.16
2023-04-04T01:35:12.628Z,27.16
2023-04-04T01:36:13.898Z,27.15
2023-04-04T01:37:12.678Z,27.16
2023-04-04T01:38:12.715Z,27.15
2023-04-04T01:39:12.752Z,27.17
2023-04-04T01:40:12.797Z,27.16
2023-04-04T01:41:12.809Z,27.17
2023-04-04T01:42:12.851Z,27.16
2023-04-04T01:43:12.876Z,27.14
2023-04-04T01:44:12.920Z,27.16
2023-04-04T01:45:12.940Z,27.14
2023-04-04T01:46:13.063Z,27.15
2023-04-04T01:47:13.019Z,27.14
2023-04-04T01:48:13.050Z,27.16
2023-04-04T01:49:13.098Z,27.15
2023-04-04T01:50:13.128Z,27.15
2023-04-04T01:51:13.155Z,27.16
2023-04-04T01:52:13.195Z,27.16
2023-04-04T01:53:13.227Z,27.15
2023-04-04T01:54:13.273Z,27.17
2023-04-04T01:55:13.324Z,27.17
2023-04-04T01:56:13.341Z,27.17
2023-04-04T01:57:13.379Z,27.15
2023-04-04T01:58:13.433Z,27.15
2023-04-04T01:59:13.521Z,27.16
2023-04-04T02:00:13.506Z,27.16
2023-04-04T02:01:13.576Z,27.17
2023-04-04T02:02:13.579Z,27.16
2023-04-04T02:03:13.614Z,27.17
2023-04-04T02:04:13.693Z,27.17
2023-04-04T02:05:13.684Z,27.15
2023-04-04T02:06:13.719Z,27.16
2023-04-04T02:07:13.753Z,27.17
2023-04-04T02:08:13.799Z,27.17
2023-04-04T02:09:13.836Z,27.17
2023-04-04T02:10:13.873Z,27.17
2023-04-04T02:11:13.910Z,27.17
2023-04-04T02:12:13.956Z,27.18
2023-04-04T02:13:13.983Z,27.17
2023-04-04T02:14:14.177Z,27.17
2023-04-04T02:15:14.093Z,27.16
2023-04-04T02:16:14.114Z,27.17
2023-04-04T02:17:14.194Z,27.15
2023-04-04T02:18:14.194Z,27.17
2023-04-04T02:19:14.234Z,27.16
2023-04-04T02:20:14.264Z,27.14
2023-04-04T02:21:14.338Z,27.16
2023-04-04T02:22:14.361Z,27.16
2023-04-04T02:23:14.389Z,27.16
2023-04-04T02:24:14.434Z,27.16
2023-04-04T02:25:14.467Z,27.18
2023-04-04T02:26:14.505Z,27.15
2023-04-04T02:27:14.544Z,27.15
2023-04-04T02:28:14.584Z,27.17
2023-04-04T02:29:14.619Z,27.17
2023-04-04T02:30:14.664Z,27.18
2023-04-04T02:31:14.733Z,27.16
2023-04-04T02:32:14.728Z,27.20
2023-04-04T02:33:14.766Z,27.18
2023-04-04T02:34:14.807Z,27.17
2023-04-04T02:35:14.832Z,27.18
2023-04-04T02:36:14.896Z,27.15
2023-04-04T02:37:14.901Z,27.16
2023-04-04T02:38:14.933Z,27.16
2023-04-04T02:39:14.965Z,27.16
2023-04-04T02:40:15.007Z,27.17
2023-04-04T02:41:15.029Z,27.16
2023-04-04T02:42:15.075Z,27.14
2023-04-04T02:43:15.105Z,27.16
2023-04-04T02:44:15.118Z,27.16
2023-04-04T02:45:15.163Z,27.16
2023-04-04T02:46:21.672Z,27.16
2023-04-04T02:47:16.308Z,27.16
2023-04-04T02:48:15.151Z,27.16
2023-04-04T02:49:15.120Z,27.18
2023-04-04T02:50:15.124Z,27.15
2023-04-04T02:51:15.095Z,27.16
2023-04-04T02:52:15.078Z,27.18
2023-04-04T02:53:15.081Z,27.17
2023-04-04T02:54:15.051Z,27.19
2023-04-04T02:55:15.073Z,27.18
2023-04-04T02:56:15.002Z,25.81
2023-04-04T02:57:15.017Z,25.25
2023-04-04T02:58:15.036Z,24.86
2023-04-04T02:59:15.120Z,24.50
2023-04-04T03:00:15.144Z,24.07
2023-04-04T03:01:15.193Z,23.76
2023-04-04T03:02:15.343Z,24.05
2023-04-04T03:03:15.353Z,24.32
2023-04-04T03:04:15.383Z,24.30
2023-04-04T03:05:15.391Z,23.60
2023-04-04T03:06:15.365Z,23.07
2023-04-04T03:07:15.357Z,22.61
2023-04-04T03:08:15.366Z,22.35
2023-04-04T03:09:15.339Z,21.94
2023-04-04T03:10:15.344Z,22.30
2023-04-04T03:11:15.299Z,21.86
2023-04-04T03:12:15.297Z,21.59
2023-04-04T03:13:15.300Z,21.38
2023-04-04T03:14:15.270Z,20.94
2023-04-04T03:15:15.276Z,21.02
2023-04-04T03:16:15.349Z,21.11
2023-04-04T03:17:15.357Z,20.76
2023-04-04T03:18:15.412Z,20.42
2023-04-04T03:19:15.501Z,20.28
2023-04-04T03:20:15.533Z,20.12
2023-04-04T03:21:15.568Z,20.28
2023-04-04T03:22:15.599Z,20.51
2023-04-04T03:23:15.619Z,20.14
2023-04-04T03:24:15.638Z,19.80
2023-04-04T03:25:15.663Z,19.75
2023-04-04T03:26:15.671Z,19.44
2023-04-04T03:27:15.701Z,19.79
2023-04-04T03:28:15.690Z,20.02
2023-04-04T03:29:15.679Z,19.59
2023-04-04T03:30:15.686Z,19.22
2023-04-04T03:31:15.669Z,19.10
2023-04-04T03:32:15.666Z,19.05
2023-04-04T03:33:15.657Z,19.10
2023-04-04T03:34:15.655Z,19.51
2023-04-04T03:35:15.649Z,19.27
2023-04-04T03:36:15.706Z,18.95
2023-04-04T03:37:15.666Z,18.85
2023-04-04T03:38:15.658Z,18.68
2023-04-04T03:39:15.648Z,18.71
2023-04-04T03:40:15.653Z,19.08
2023-04-04T03:41:15.661Z,18.94
2023-04-04T03:42:15.651Z,18.61
2023-04-04T03:43:15.638Z,18.48
2023-04-04T03:44:15.660Z,18.44
2023-04-04T03:45:15.640Z,18.37
2023-04-04T03:46:15.681Z,18.63
2023-04-04T03:47:15.615Z,18.80
2023-04-04T03:48:15.615Z,18.35
2023-04-04T03:49:15.604Z,18.23
2023-04-04T03:50:15.599Z,18.07
2023-04-04T03:51:15.591Z,18.08
2023-04-04T03:52:15.587Z,18.14
2023-04-04T03:53:15.583Z,18.42
2023-04-04T03:54:15.560Z,18.31
2023-04-04T03:55:15.576Z,18.04
2023-04-04T03:56:15.544Z,17.90
2023-04-04T03:57:15.541Z,17.92
2023-04-04T03:58:15.525Z,17.81
2023-04-04T03:59:15.615Z,18.11
2023-04-04T04:00:15.521Z,18.23
2023-04-04T04:01:15.524Z,18.03
2023-04-04T04:02:15.560Z,17.83
2023-04-04T04:03:17.110Z,17.69
2023-04-04T04:04:15.525Z,17.62
2023-04-04T04:05:15.486Z,17.74
2023-04-04T04:06:15.473Z,17.99
2023-04-04T04:07:15.455Z,17.98
2023-04-04T04:08:15.451Z,17.68
2023-04-04T04:09:15.461Z,17.55
2023-04-04T04:10:15.439Z,17.49
2023-04-04T04:11:15.429Z,17.50
2023-04-04T04:12:15.432Z,17.57
2023-04-04T04:13:15.423Z,17.93
2023-04-04T04:14:15.405Z,17.92
2023-04-04T04:15:15.410Z,17.62
2023-04-04T04:16:15.445Z,17.45
2023-04-04T04:17:15.383Z,17.45
2023-04-04T04:18:15.376Z,17.30
2023-04-04T04:19:15.384Z,17.53
2023-04-04T04:20:15.370Z,17.75
2023-04-04T04:21:15.377Z,17.61
2023-04-04T04:22:15.358Z,17.36
2023-04-04T04:23:15.370Z,17.19
2023-04-04T04:24:15.350Z,17.13
2023-04-04T04:25:15.354Z,17.06
2023-04-04T04:26:15.362Z,17.49
2023-04-04T04:27:15.349Z,17.62
2023-04-04T04:28:15.330Z,17.33
2023-04-04T04:29:15.323Z,17.15
2023-04-04T04:30:15.337Z,17.06
2023-04-04T04:31:15.357Z,17.06
2023-04-04T04:32:15.336Z,17.11
2023-04-04T04:33:15.321Z,17.45
2023-04-04T04:34:15.307Z,17.48
2023-04-04T04:35:15.300Z,17.15
2023-04-04T04:36:15.318Z,17.11
2023-04-04T04:37:15.296Z,17.06
2023-04-04T04:38:15.278Z,16.93
2023-04-04T04:39:15.274Z,17.11
2023-04-04T04:40:15.278Z,17.30
2023-04-04T04:41:15.274Z,17.22
2023-04-04T04:42:15.261Z,17.00
2023-04-04T04:43:15.312Z,16.90
2023-04-04T04:44:15.251Z,16.82
2023-04-04T04:45:15.242Z,16.79
2023-04-04T04:46:15.269Z,17.12
2023-04-04T04:47:15.228Z,17.14
2023-04-04T04:48:15.227Z,17.13
2023-04-04T04:49:15.254Z,16.79
2023-04-04T04:50:15.222Z,16.71
2023-04-04T04:51:15.303Z,16.83
2023-04-04T04:52:15.197Z,16.64
2023-04-04T04:53:15.215Z,16.97
2023-04-04T04:54:15.194Z,17.11
2023-04-04T04:55:15.173Z,16.91
2023-04-04T04:56:15.176Z,16.69
2023-04-04T04:57:15.178Z,16.68
2023-04-04T04:58:15.937Z,16.64
2023-04-04T04:59:15.189Z,16.60
2023-04-04T05:00:15.176Z,16.88
2023-04-04T05:01:15.203Z,17.03
2023-04-04T05:02:15.224Z,16.76
2023-04-04T05:03:15.331Z,16.62
2023-04-04T05:04:15.153Z,16.55
2023-04-04T05:05:15.152Z,16.48
2023-04-04T05:06:15.147Z,16.49
2023-04-04T05:07:15.139Z,16.81
2023-04-04T05:08:15.133Z,16.97
2023-04-04T05:09:15.129Z,16.61
2023-04-04T05:10:15.127Z,16.55
2023-04-04T05:11:15.125Z,16.51
2023-04-04T05:12:15.137Z,16.49
2023-04-04T05:13:15.149Z,16.63
2023-04-04T05:14:15.162Z,16.79
2023-04-04T05:15:15.176Z,16.77
2023-04-04T05:16:15.246Z,16.54
2023-04-04T05:17:15.193Z,16.43
2023-04-04T05:18:15.211Z,16.53
2023-04-04T05:19:15.362Z,16.32
2023-04-04T05:20:15.249Z,16.56
2023-04-04T05:21:15.267Z,16.76
2023-04-04T05:22:15.276Z,16.59
2023-04-04T05:23:15.289Z,16.44
2023-04-04T05:24:15.303Z,16.39
2023-04-04T05:25:15.319Z,16.42
2023-04-04T05:26:15.343Z,16.31
2023-04-04T05:27:15.348Z,16.62
2023-04-04T05:28:15.374Z,16.73
2023-04-04T05:29:15.428Z,16.53
2023-04-04T05:30:15.402Z,16.27
2023-04-04T05:31:15.420Z,16.24
2023-04-04T05:32:15.481Z,16.28
2023-04-04T05:33:15.455Z,16.15
2023-04-04T05:34:15.471Z,16.45
2023-04-04T05:35:15.524Z,16.65
2023-04-04T05:36:15.528Z,16.41
2023-04-04T05:37:15.502Z,16.23
2023-04-04T05:38:15.507Z,16.21
2023-04-04T05:39:15.536Z,16.12
2023-04-04T05:40:15.537Z,16.16
2023-04-04T05:41:15.558Z,16.53
2023-04-04T05:42:15.577Z,16.59
2023-04-04T05:43:15.594Z,16.42
2023-04-04T05:44:15.589Z,16.19
2023-04-04T05:45:15.610Z,16.13
2023-04-04T05:46:15.669Z,16.06
2023-04-04T05:47:15.716Z,16.09
2023-04-04T05:48:15.681Z,16.44
2023-04-04T05:49:15.683Z,16.40
2023-04-04T05:50:15.707Z,16.19
2023-04-04T05:51:15.750Z,16.06
2023-04-04T05:52:15.741Z,16.07
2023-04-04T05:53:15.750Z,16.01
2023-04-04T05:54:15.765Z,16.19
2023-04-04T05:55:15.773Z,16.40
2023-04-04T05:56:15.796Z,16.45
2023-04-04T05:57:15.825Z,16.13
2023-04-04T05:58:15.809Z,16.02
2023-04-04T05:59:15.862Z,15.99
2023-04-04T06:00:15.827Z,15.90
2023-04-04T06:01:15.865Z,16.20
2023-04-04T06:02:15.908Z,16.31
2023-04-04T06:03:15.954Z,16.27
2023-04-04T06:04:15.901Z,16.03
2023-04-04T06:05:15.929Z,15.92
2023-04-04T06:06:16.003Z,15.93
2023-04-04T06:07:15.954Z,15.82
2023-04-04T06:08:15.962Z,16.17
2023-04-04T06:09:15.993Z,16.28
2023-04-04T06:10:16.000Z,16.11
2023-04-04T06:11:16.031Z,15.95
2023-04-04T06:12:16.036Z,15.85
2023-04-04T06:13:16.064Z,15.86
2023-04-04T06:14:16.071Z,15.92
2023-04-04T06:15:16.078Z,16.11
2023-04-04T06:16:16.271Z,16.24
2023-04-04T06:17:16.113Z,15.96
2023-04-04T06:18:16.123Z,15.86
2023-04-04T06:19:16.133Z,15.77
2023-04-04T06:20:16.148Z,15.85
2023-04-04T06:21:16.159Z,16.04
2023-04-04T06:22:16.180Z,16.18
2023-04-04T06:23:16.187Z,15.97
2023-04-04T06:24:16.197Z,15.90
2023-04-04T06:25:16.230Z,15.73
2023-04-04T06:26:16.226Z,15.83
2023-04-04T06:27:16.268Z,15.70
2023-04-04T06:28:16.264Z,15.98
2023-04-04T06:29:16.304Z,16.10
2023-04-04T06:30:16.297Z,15.85
2023-04-04T06:31:16.348Z,15.75
2023-04-04T06:32:16.328Z,15.82
2023-04-04T06:33:16.340Z,15.64
2023-04-04T06:34:16.364Z,15.69
2023-04-04T06:35:18.198Z,15.86
2023-04-04T06:36:16.410Z,15.95
2023-04-04T06:37:16.411Z,15.73
2023-04-04T06:38:16.417Z,15.66
2023-04-04T06:39:16.402Z,15.54
2023-04-04T06:40:16.421Z,15.50
2023-04-04T06:41:16.424Z,15.69
2023-04-04T06:42:16.417Z,15.85
2023-04-04T06:43:16.420Z,15.71
2023-04-04T06:44:16.407Z,15.58
2023-04-04T06:45:16.402Z,15.59
2023-04-04T06:46:16.433Z,15.52
2023-04-04T06:47:16.408Z,15.46
2023-04-04T06:48:16.399Z,15.58
2023-04-04T06:49:16.381Z,15.79
2023-04-04T06:50:16.379Z,15.55
2023-04-04T06:51:16.384Z,15.41
2023-04-04T06:52:16.376Z,15.43
2023-04-04T06:53:16.373Z,15.43
2023-04-04T06:54:16.384Z,15.46
2023-04-04T06:55:16.373Z,15.69
2023-04-04T06:56:16.360Z,15.56
2023-04-04T06:57:16.361Z,15.45
2023-04-04T06:58:16.346Z,15.35
2023-04-04T06:59:16.430Z,15.40
2023-04-04T07:00:16.362Z,15.27
2023-04-04T07:01:16.395Z,15.41
2023-04-04T07:02:16.332Z,15.56
2023-04-04T07:03:16.351Z,15.40
2023-04-04T07:04:16.317Z,15.33
2023-04-04T07:05:16.309Z,15.30
2023-04-04T07:06:16.289Z,15.27
2023-04-04T07:07:16.291Z,15.34
2023-04-04T07:08:16.275Z,15.52
2023-04-04T07:09:28.206Z,15.32
2023-04-04T07:10:17.256Z,15.30
2023-04-04T07:11:16.236Z,15.21
2023-04-04T07:12:16.237Z,15.18
2023-04-04T07:13:16.210Z,15.22
2023-04-04T07:14:16.206Z,15.44
2023-04-04T07:15:16.173Z,15.25
2023-04-04T07:16:16.182Z,15.15
2023-04-04T07:18:16.143Z,15.01
2023-04-04T07:19:16.147Z,15.09
2023-04-04T07:20:16.125Z,15.33
2023-04-04T07:21:16.142Z,15.09
2023-04-04T07:22:16.124Z,15.07
2023-04-04T07:23:16.115Z,14.99
2023-04-04T07:24:16.117Z,14.99
2023-04-04T07:25:16.129Z,14.93
2023-04-04T07:26:16.104Z,14.96
2023-04-04T07:27:16.097Z,14.84
2023-04-04T07:28:16.085Z,14.73
2023-04-04T07:29:16.072Z,14.71
2023-04-04T07:30:16.065Z,14.74
2023-04-04T07:31:16.062Z,14.80
2023-04-04T07:32:16.072Z,14.72
2023-04-04T07:33:16.071Z,14.63
2023-04-04T07:34:16.066Z,14.47
2023-04-04T07:35:16.049Z,14.58
2023-04-04T07:36:16.050Z,14.61
2023-04-04T07:37:16.028Z,14.65
2023-04-04T07:38:16.004Z,14.58
2023-04-04T07:39:16.005Z,14.42
2023-04-04T07:40:15.993Z,14.51
2023-04-04T07:41:15.994Z,14.41
2023-04-04T07:42:15.983Z,14.31
2023-04-04T07:43:15.966Z,14.26
2023-04-04T07:44:15.966Z,14.31
2023-04-04T07:45:15.960Z,14.25
2023-04-04T07:46:15.975Z,14.23
2023-04-04T07:47:15.945Z,14.28
2023-04-04T07:48:15.947Z,14.26
2023-04-04T07:49:15.923Z,14.16
2023-04-04T07:50:15.928Z,14.09
2023-04-04T07:51:15.917Z,14.10
2023-04-04T07:52:15.890Z,14.10
2023-04-04T07:53:15.922Z,14.06
2023-04-04T07:54:15.905Z,13.94
2023-04-04T07:55:16.771Z,13.92
2023-04-04T07:56:15.837Z,13.90
2023-04-04T07:57:15.853Z,13.84
2023-04-04T07:58:15.837Z,13.69
2023-04-04T07:59:15.920Z,13.84
2023-04-04T08:00:15.905Z,13.77
2023-04-04T08:01:15.932Z,13.75
2023-04-04T08:02:16.010Z,13.77
2023-04-04T08:03:16.172Z,13.70
2023-04-04T08:04:16.100Z,13.67
2023-04-04T08:05:16.077Z,13.53
2023-04-04T08:06:16.074Z,13.54
2023-04-04T08:07:16.091Z,13.86
2023-04-04T08:08:16.055Z,14.17
2023-04-04T08:09:16.058Z,14.43
2023-04-04T08:10:16.038Z,14.34
2023-04-04T08:11:16.053Z,14.18
2023-04-04T08:12:16.081Z,14.09
2023-04-04T08:13:16.119Z,14.03
2023-04-04T08:14:16.089Z,13.97
2023-04-04T08:15:16.081Z,13.89
2023-04-04T08:16:16.118Z,13.91
2023-04-04T08:17:16.068Z,13.90
2023-04-04T08:18:16.061Z,14.20
2023-04-04T08:19:16.070Z,14.27
2023-04-04T08:20:16.065Z,14.62
2023-04-04T08:21:16.078Z,14.36
2023-04-04T08:22:16.036Z,14.20
2023-04-04T08:23:16.044Z,14.11
2023-04-04T08:24:16.039Z,13.79
2023-04-04T08:25:16.024Z,13.75
2023-04-04T08:26:16.038Z,13.77
2023-04-04T08:27:16.043Z,13.73
2023-04-04T08:28:16.186Z,13.69
2023-04-04T08:29:16.023Z,13.60
2023-04-04T08:30:16.027Z,13.64
2023-04-04T08:31:16.082Z,13.43
2023-04-04T08:32:16.042Z,13.37
2023-04-04T08:33:16.123Z,13.37
2023-04-04T08:34:16.099Z,13.34
2023-04-04T08:35:16.101Z,13.36
2023-04-04T08:36:16.164Z,13.25
2023-04-04T08:37:16.127Z,13.24
2023-04-04T08:38:16.154Z,13.19
2023-04-04T08:39:16.162Z,13.19
2023-04-04T08:40:16.173Z,13.17
2023-04-04T08:41:16.210Z,13.14
2023-04-04T08:42:16.209Z,13.13
2023-04-04T08:43:16.234Z,13.04
2023-04-04T08:44:16.256Z,13.00
2023-04-04T08:45:16.288Z,12.97
2023-04-04T08:46:16.364Z,12.92
2023-04-04T08:47:16.322Z,12.88
2023-04-04T08:48:16.353Z,12.83
2023-04-04T08:49:16.370Z,12.86
2023-04-04T08:50:16.391Z,12.89
2023-04-04T08:51:16.408Z,12.79
2023-04-04T08:52:16.429Z,12.77
2023-04-04T08:53:16.477Z,12.76
2023-04-04T08:54:16.502Z,12.80
2023-04-04T08:55:16.519Z,12.76
2023-04-04T08:56:16.543Z,12.79
2023-04-04T08:57:16.553Z,12.85
2023-04-04T08:58:16.580Z,12.81
2023-04-04T08:59:16.655Z,12.91
2023-04-04T09:00:16.638Z,13.14
2023-04-04T09:01:16.642Z,13.28
2023-04-04T09:02:16.614Z,13.38
2023-04-04T09:03:16.611Z,13.66
2023-04-04T09:04:16.599Z,13.91
2023-04-04T09:05:16.607Z,14.08
2023-04-04T09:06:16.623Z,14.19
2023-04-04T09:07:16.642Z,14.07
2023-04-04T09:08:16.663Z,14.14
2023-04-04T09:09:16.710Z,14.02
2023-04-04T09:10:16.749Z,14.03
2023-04-04T09:11:16.813Z,14.15
2023-04-04T09:12:16.866Z,14.19
2023-04-04T09:13:16.981Z,14.19
2023-04-04T09:14:16.983Z,14.25
2023-04-04T09:15:17.037Z,14.34
2023-04-04T09:16:17.117Z,14.34
2023-04-04T09:17:17.131Z,14.42
2023-04-04T09:18:17.250Z,14.48
2023-04-04T09:19:17.234Z,14.60
2023-04-04T09:20:17.278Z,14.62
2023-04-04T09:21:17.322Z,14.60
2023-04-04T09:22:17.364Z,14.70
2023-04-04T09:23:17.447Z,14.75
2023-04-04T09:24:17.464Z,14.87
2023-04-04T09:25:17.483Z,14.94
2023-04-04T09:26:17.528Z,14.98
2023-04-04T09:27:17.557Z,15.05
2023-04-04T09:28:17.599Z,15.12
2023-04-04T09:29:17.669Z,15.11
2023-04-04T09:30:17.708Z,15.14
2023-04-04T09:31:17.736Z,15.21
2023-04-04T09:32:17.791Z,15.29
2023-04-04T09:33:17.812Z,15.28
2023-04-04T09:34:17.867Z,15.30
2023-04-04T09:35:17.889Z,15.34
2023-04-04T09:36:18.537Z,15.39
2023-04-04T09:37:17.944Z,15.38
2023-04-04T09:38:17.981Z,15.49
2023-04-04T09:39:18.003Z,15.58
2023-04-04T09:40:18.059Z,15.66
2023-04-04T09:41:18.058Z,15.67
2023-04-04T09:42:18.027Z,15.77
2023-04-04T09:43:18.027Z,15.76
2023-04-04T09:44:18.147Z,15.78
2023-04-04T09:45:29.683Z,15.83
2023-04-04T09:46:19.020Z,15.85
2023-04-04T09:47:29.586Z,15.87
2023-04-04T09:48:18.883Z,16.02
2023-04-04T09:49:17.862Z,16.05
2023-04-04T09:50:17.833Z,15.98
2023-04-04T09:51:17.847Z,16.03
2023-04-04T09:52:17.804Z,16.02
2023-04-04T09:53:17.787Z,16.06
2023-04-04T09:54:28.893Z,16.16
2023-04-04T09:55:18.731Z,16.20
2023-04-04T09:56:17.709Z,16.28
2023-04-04T09:57:17.671Z,16.31
2023-04-04T09:58:17.660Z,16.32
2023-04-04T09:59:17.703Z,16.43
2023-04-04T10:00:17.610Z,16.40
2023-04-04T10:01:17.619Z,16.43
2023-04-04T10:02:17.568Z,16.46
2023-04-04T10:03:17.548Z,16.52
2023-04-04T10:04:17.565Z,16.63
2023-04-04T10:05:17.532Z,16.64
2023-04-04T10:06:17.543Z,16.63
2023-04-04T10:07:17.484Z,16.64
2023-04-04T10:08:17.455Z,16.70
2023-04-04T10:09:17.437Z,16.70
2023-04-04T10:10:17.446Z,16.78
2023-04-04T10:11:17.392Z,16.74
2023-04-04T10:12:17.426Z,16.84
2023-04-04T10:13:17.425Z,16.86
2023-04-04T10:14:17.519Z,16.81
2023-04-04T10:15:17.446Z,16.94
2023-04-04T10:16:17.512Z,16.90
2023-04-04T10:17:17.468Z,16.91
2023-04-04T10:18:17.478Z,16.95
2023-04-04T10:19:17.502Z,16.95
2023-04-04T10:20:17.510Z,17.02
2023-04-04T10:21:17.512Z,17.09
2023-04-04T10:22:17.545Z,17.10
2023-04-04T10:23:17.522Z,17.21
2023-04-04T10:24:17.543Z,17.17
2023-04-04T10:25:17.511Z,17.26
2023-04-04T10:26:17.494Z,17.26
2023-04-04T10:27:17.487Z,17.27
2023-04-04T10:28:17.522Z,17.30
2023-04-04T10:29:17.459Z,17.33
2023-04-04T10:30:17.504Z,17.37
2023-04-04T10:31:17.495Z,17.38
2023-04-04T10:32:17.400Z,17.37
2023-04-04T10:33:17.354Z,17.39
2023-04-04T10:34:17.340Z,17.46
2023-04-04T10:35:17.319Z,17.46
2023-04-04T10:36:17.423Z,17.49
2023-04-04T10:37:17.263Z,17.54
2023-04-04T10:38:17.233Z,17.57
2023-04-04T10:39:17.228Z,17.57
2023-04-04T10:40:17.205Z,17.61
2023-04-04T10:41:17.162Z,17.61
2023-04-04T10:42:17.143Z,17.59
2023-04-04T10:43:17.103Z,17.62
2023-04-04T10:44:17.086Z,17.64
2023-04-04T10:45:20.451Z,17.71
2023-04-04T10:46:17.043Z,17.77
2023-04-04T10:47:16.996Z,17.73
2023-04-04T10:48:16.972Z,17.74
2023-04-04T10:49:16.938Z,17.78
2023-04-04T10:50:16.933Z,17.78
2023-04-04T10:51:16.871Z,17.80
2023-04-04T10:52:16.843Z,17.87
2023-04-04T10:53:16.824Z,17.89
2023-04-04T10:54:16.806Z,17.85
2023-04-04T10:55:16.785Z,17.87
2023-04-04T10:56:16.749Z,17.90
2023-04-04T10:57:16.734Z,17.95
2023-04-04T10:58:16.726Z,18.03
2023-04-04T10:59:16.732Z,18.00
2023-04-04T11:00:16.686Z,17.99
2023-04-04T11:01:16.714Z,18.02
2023-04-04T11:02:16.648Z,18.06
2023-04-04T11:03:16.613Z,18.09
2023-04-04T11:04:19.499Z,18.08
2023-04-04T11:05:16.557Z,18.15
2023-04-04T11:06:16.535Z,18.08
2023-04-04T11:07:16.542Z,18.09
2023-04-04T11:08:17.445Z,18.16
2023-04-04T11:09:16.467Z,18.17
2023-04-04T11:10:16.452Z,18.18
2023-04-04T11:11:22.519Z,18.16
2023-04-04T11:12:17.390Z,18.13
2023-04-04T11:13:16.418Z,18.14
2023-04-04T11:14:16.337Z,18.12
2023-04-04T11:15:16.376Z,18.14
2023-04-04T11:16:16.400Z,18.14
2023-04-04T11:17:16.294Z,18.16
2023-04-04T11:18:30.136Z,18.16
2023-04-04T11:19:17.234Z,18.14
2023-04-04T11:20:16.222Z,18.15
2023-04-04T11:21:16.179Z,18.17
2023-04-04T11:22:16.154Z,18.16
2023-04-04T11:23:16.119Z,18.17
2023-04-04T11:24:16.115Z,18.15
2023-04-04T11:25:16.105Z,18.12
2023-04-04T11:26:16.052Z,18.13
2023-04-04T11:27:16.120Z,18.13
2023-04-04T11:28:16.019Z,18.12
2023-04-04T11:29:15.983Z,18.15
2023-04-04T11:30:15.954Z,18.10
2023-04-04T11:31:15.928Z,18.09
2023-04-04T11:32:15.939Z,18.10
2023-04-04T11:33:15.916Z,18.13
2023-04-04T11:34:15.860Z,18.14
2023-04-04T11:35:15.855Z,18.14
2023-04-04T11:36:15.829Z,18.17
2023-04-04T11:37:15.775Z,18.17
2023-04-04T11:38:15.758Z,18.19
2023-04-04T11:39:15.875Z,18.22
2023-04-04T11:40:15.704Z,18.22
2023-04-04T11:41:15.661Z,18.28
2023-04-04T11:42:15.641Z,18.31
2023-04-04T11:43:15.610Z,18.35
2023-04-04T11:44:15.606Z,18.33
2023-04-04T11:45:15.574Z,18.33
2023-04-04T11:46:15.582Z,18.37
2023-04-04T11:47:15.518Z,18.37
2023-04-04T11:48:15.504Z,18.36
2023-04-04T11:49:15.443Z,18.41
2023-04-04T11:50:15.410Z,18.43
2023-04-04T11:51:15.385Z,18.46
2023-04-04T11:52:15.351Z,18.44
2023-04-04T11:53:15.335Z,18.50
2023-04-04T11:54:15.311Z,18.57
2023-04-04T11:55:15.284Z,18.54
2023-04-04T11:56:15.307Z,18.54
2023-04-04T11:57:15.220Z,18.57
2023-04-04T11:58:15.198Z,18.59
2023-04-04T11:59:15.187Z,18.58
2023-04-04T12:00:15.180Z,18.61
2023-04-04T12:01:15.101Z,18.64
2023-04-04T12:02:15.124Z,18.67
2023-04-04T12:03:15.146Z,18.66
2023-04-04T12:04:15.058Z,18.65
2023-04-04T12:05:15.090Z,18.66
2023-04-04T12:06:14.991Z,18.67
2023-04-04T12:07:14.943Z,18.69
2023-04-04T12:08:14.927Z,18.70
2023-04-04T12:09:14.900Z,18.75
2023-04-04T12:10:14.888Z,18.76
2023-04-04T12:11:14.854Z,18.76
2023-04-04T12:12:14.847Z,18.76
2023-04-04T12:13:14.803Z,18.79
2023-04-04T12:14:14.769Z,18.80
2023-04-04T12:15:17.739Z,18.87
2023-04-04T12:16:14.758Z,18.85
2023-04-04T12:17:14.686Z,18.84
2023-04-04T12:18:14.656Z,18.85
2023-04-04T12:19:14.639Z,18.85
2023-04-04T12:20:14.604Z,18.86
2023-04-04T12:21:14.573Z,18.86
2023-04-04T12:22:14.541Z,18.87
2023-04-04T12:23:14.526Z,18.87
2023-04-04T12:24:14.511Z,18.90
2023-04-04T12:25:14.476Z,18.91
2023-04-04T12:26:14.463Z,18.91
2023-04-04T12:27:14.432Z,18.95
2023-04-04T12:28:14.416Z,18.91
2023-04-04T12:29:14.436Z,18.94
2023-04-04T12:30:14.459Z,18.95
2023-04-04T12:31:14.542Z,18.96
2023-04-04T12:32:14.492Z,18.98
2023-04-04T12:33:14.522Z,18.99
2023-04-04T12:34:14.494Z,18.98
2023-04-04T12:35:14.484Z,18.95
2023-04-04T12:36:14.513Z,19.02
2023-04-04T12:37:14.413Z,19.01
2023-04-04T12:38:14.388Z,19.01
2023-04-04T12:39:14.361Z,18.98
2023-04-04T12:40:14.327Z,18.98
2023-04-04T12:41:14.310Z,18.99
2023-04-04T12:42:14.270Z,18.99
2023-04-04T12:43:14.243Z,19.01
2023-04-04T12:44:14.267Z,19.03
2023-04-04T12:45:14.272Z,19.00
2023-04-04T12:46:14.353Z,18.97
2023-04-04T12:47:14.371Z,18.99
2023-04-04T12:48:14.444Z,18.98
2023-04-04T12:49:14.433Z,18.97
2023-04-04T12:50:14.466Z,18.99
2023-04-04T12:51:14.526Z,18.99
2023-04-04T12:52:14.551Z,18.99
2023-04-04T12:53:27.840Z,18.98